• Join FlightAware (Why Join?)
  • Login
  • US Flag 
05:38PM EDT


 

Airport Tracker/Info


-or-


 

Live Flight TrackerFlight Track Log ✈ N779NC ✈ 30-Jun-2013 ✈ KATL - KCLE

Flight Track Log - Related Links

Times and Time Zones

All times are in EDT time to prevent confusion due to time zone crossing. See the N779NC flight status page for this flight to view local times or setup timezone preferences in your user account.

Time Position Orientation Groundspeed Altitude Reporting Facility
EDT Latitude Longitude Course Direction KTS MPH feet Rate Location/Type
02:44PM 33.6500 -84.5000 12° North 213 245 2,500  Level Atlanta TRACON
02:45PM 33.6833 -84.5667 301° West 269 310 4,400 1,980 Climbing Atlanta TRACON
02:46PM 33.7667 -84.6000 342° North 282 325 6,800 2,160 Climbing Atlanta TRACON
02:47PM 33.8333 -84.5500 32° Northeast 299 344 8,900 1,740 Climbing Atlanta TRACON
02:48PM 34.2858 -84.2778 12° North  Level FlightAware Approximate
02:49PM 34.4155 -84.2443 12° North  Level FlightAware Approximate
02:49PM 33.9772 -84.4572 28° Northeast 335 386 11,600  Level Atlanta Center
02:50PM 34.5451 -84.2106 12° North  Level FlightAware Approximate
02:50PM 34.0797 -84.4200 17° North 365 420 12,900  Level Atlanta Center
02:52PM 34.2507 -84.3658 12° North  Level Estimated
02:52PM 34.2844 -84.3481 12° North 399 459 16,000  Level Atlanta Center
02:53PM 34.3931 -84.3131 15° North 399 459 17,300 1,260 Climbing Atlanta Center
02:54PM 34.5058 -84.2706 17° North 406 467 18,600 1,260 Climbing Atlanta Center
02:55PM 34.6247 -84.2356 14° North 423 487 19,900 1,200 Climbing Atlanta Center
02:57PM 34.8731 -84.1603 14° North 433 498 22,200 960 Climbing Atlanta Center
02:58PM 35.0006 -84.1428 North 445 512 22,900 900 Climbing Atlanta Center
02:59PM 35.1319 -84.1097 12° North 456 525 24,000 840 Climbing Atlanta Center
03:00PM 35.2633 -84.0844 North 468 539 24,600 720 Climbing Atlanta Center
03:01PM 35.3969 -84.0489 12° North 473 544 25,500 720 Climbing Atlanta Center
03:03PM 35.5648 -83.9809 18° North  Level FlightAware Approximate
03:04PM 35.8081 -83.9286 28° Northeast 500 575 27,500  Level Atlanta Center
03:06PM 36.0872 -83.8281 16° North 510 587 28,800 540 Climbing Atlanta Center
03:07PM 36.1958 -83.7767 21° North 536 617 29,100 420 Climbing Indianapolis Center
03:08PM 36.3250 -83.6842 30° Northeast 539 620 29,600 480 Climbing Indianapolis Center
03:09PM 36.4453 -83.5697 37° Northeast 546 628 30,100 480 Climbing Indianapolis Center
03:10PM 36.4182 -83.5469 28° Northeast  Level FlightAware Approximate
03:10PM 36.5853 -83.4611 32° Northeast 545 627 30,600  Level Indianapolis Center
03:11PM 36.7247 -83.3781 26° Northeast 550 633 30,900 180 Climbing Indianapolis Center
03:12PM 36.8617 -83.2872 28° Northeast 551 634 31,000  Climbing Indianapolis Center
03:13PM 37.0047 -83.2122 23° Northeast 549 632 31,000  Level Indianapolis Center
03:14PM 37.1489 -83.1414 21° North 548 631 31,000  Level Indianapolis Center
03:15PM 37.2875 -83.0592 25° Northeast 543 625 31,000  Level Indianapolis Center
03:16PM 37.4247 -82.9750 26° Northeast 543 625 31,000  Level Indianapolis Center
03:17PM 37.5811 -82.8708 28° Northeast 543 625 31,000  Level Indianapolis Center
03:18PM 37.7194 -82.7900 25° Northeast 545 627 31,000  Level Indianapolis Center
03:19PM 37.8578 -82.7125 24° Northeast 543 625 31,000  Level Indianapolis Center
03:20PM 37.9969 -82.6358 23° Northeast 544 626 31,000  Level Indianapolis Center
03:21PM 38.1333 -82.5506 26° Northeast 545 627 31,000  Level Indianapolis Center
03:22PM 38.2861 -82.4714 22° Northeast 544 626 31,000  Level Indianapolis Center
03:23PM 38.4247 -82.3914 24° Northeast 545 627 31,000  Level Indianapolis Center
03:24PM 38.5608 -82.3014 27° Northeast 547 629 31,000  Level Indianapolis Center
03:26PM 38.6992 -82.2167 26° Northeast 547 629 31,000  Level Indianapolis Center
03:27PM 38.8486 -82.1819 10° North 541 623 31,000  Level Indianapolis Center
03:28PM 38.9969 -82.1944 356° North 532 612 31,000  Level Indianapolis Center
03:29PM 39.1458 -82.1992 359° North 532 612 31,000  Level Indianapolis Center
03:30PM 39.2961 -82.1889 North 537 618 31,000 -1,200 Level Indianapolis Center
03:32PM 39.6039 -82.2178 356° North 519 597 27,300 -1,740 Descending Indianapolis Center
03:33PM 39.7389 -82.2586 347° North 498 573 25,700 -1,740 Descending Indianapolis Center
03:34PM 39.8894 -82.2981 349° North 475 547 23,800 -1,140 Descending Indianapolis Center
03:35PM 40.0158 -82.2786 North 460 529 23,400 -1,140 Descending Indianapolis Center
03:36PM 40.1433 -82.2444 12° North 464 534 21,500 -1,740 Descending Indianapolis Center
03:37PM 40.2592 -82.2117 12° North 452 520 19,900 -1,800 Descending Indianapolis Center
03:38PM 40.3761 -82.1572 20° North 444 511 17,900 -1,860 Descending Indianapolis Center
03:39PM 40.4881 -82.0975 22° Northeast 432 497 16,200 -1,860 Descending Indianapolis Center
03:40PM 40.6044 -82.0069 31° Northeast 413 475 14,200 -1,920 Descending Indianapolis Center
03:40PM 40.6489 -81.9597 39° Northeast 403 464 13,300 -1,320 Descending Cleveland Center
03:41PM 40.7206 -81.8844 39° Northeast 394 453 12,300 -1,380 Descending Cleveland Center
03:43PM 40.8469 -81.7717 34° Northeast 377 434 10,100 -1,200 Descending Cleveland Center
03:43PM 40.8911 -81.7367 31° Northeast 371 427 10,000 -120 Descending Cleveland Center
03:44PM 40.9597 -81.7433 356° North 343 395 10,000 -300 Level Cleveland Center
03:45PM 41.0428 -81.7833 340° North 314 361 9,600 -900 Descending Cleveland Center
03:46PM 41.0794 -81.8611 302° West 275 316 8,300 -1,680 Descending Cleveland Center
03:47PM 41.1325 -81.9422 311° West 281 323 6,400 -1,740 Descending Cleveland Center
03:48PM 41.1881 -82.0233 312° West 270 311 4,600 -1,500 Descending Cleveland Center
03:49PM 41.2292 -82.0686 320° Northwest 265 305 3,700 -1,320 Descending Cleveland Center